sensor_id;sensor_type;location;lat;lon;timestamp;temperature;humidity
38090;DHT22;23904;52.322;10.232;2023-11-25T00:00:47;1.40;99.90
38090;DHT22;23904;52.322;10.232;2023-11-25T00:03:13;1.40;99.90
38090;DHT22;23904;52.322;10.232;2023-11-25T00:05:40;1.40;99.90
38090;DHT22;23904;52.322;10.232;2023-11-25T00:08:06;1.40;99.90
38090;DHT22;23904;52.322;10.232;2023-11-25T00:10:33;1.40;99.90
38090;DHT22;23904;52.322;10.232;2023-11-25T00:12:59;1.30;99.90
38090;DHT22;23904;52.322;10.232;2023-11-25T00:15:27;1.30;99.90
38090;DHT22;23904;52.322;10.232;2023-11-25T00:17:53;1.30;99.90
38090;DHT22;23904;52.322;10.232;2023-11-25T00:20:20;1.30;99.90
38090;DHT22;23904;52.322;10.232;2023-11-25T00:22:46;1.30;99.90
38090;DHT22;23904;52.322;10.232;2023-11-25T00:25:12;1.30;99.90
38090;DHT22;23904;52.322;10.232;2023-11-25T00:27:38;1.30;99.90
38090;DHT22;23904;52.322;10.232;2023-11-25T00:30:05;1.20;99.90
38090;DHT22;23904;52.322;10.232;2023-11-25T00:32:32;1.20;99.90
38090;DHT22;23904;52.322;10.232;2023-11-25T00:35:03;1.20;99.90
38090;DHT22;23904;52.322;10.232;2023-11-25T00:37:31;1.10;99.90
38090;DHT22;23904;52.322;10.232;2023-11-25T00:40:01;1.10;99.90
38090;DHT22;23904;52.322;10.232;2023-11-25T00:42:30;1.20;99.90
38090;DHT22;23904;52.322;10.232;2023-11-25T00:44:56;1.10;99.90
38090;DHT22;23904;52.322;10.232;2023-11-25T00:47:21;1.10;99.90
38090;DHT22;23904;52.322;10.232;2023-11-25T00:49:49;1.00;99.90
38090;DHT22;23904;52.322;10.232;2023-11-25T00:52:15;1.00;99.90
38090;DHT22;23904;52.322;10.232;2023-11-25T00:54:43;1.00;99.90
38090;DHT22;23904;52.322;10.232;2023-11-25T00:57:08;1.00;99.90
38090;DHT22;23904;52.322;10.232;2023-11-25T00:59:34;1.00;99.90
38090;DHT22;23904;52.322;10.232;2023-11-25T01:01:59;0.90;99.90
38090;DHT22;23904;52.322;10.232;2023-11-25T01:04:26;0.90;99.90
38090;DHT22;23904;52.322;10.232;2023-11-25T01:06:51;0.90;99.90
38090;DHT22;23904;52.322;10.232;2023-11-25T01:09:17;0.90;99.90
38090;DHT22;23904;52.322;10.232;2023-11-25T01:11:48;1.00;99.90
38090;DHT22;23904;52.322;10.232;2023-11-25T01:14:14;0.90;99.90
38090;DHT22;23904;52.322;10.232;2023-11-25T01:16:39;0.90;99.90
38090;DHT22;23904;52.322;10.232;2023-11-25T01:19:05;0.90;99.90
38090;DHT22;23904;52.322;10.232;2023-11-25T01:21:31;0.90;99.90
38090;DHT22;23904;52.322;10.232;2023-11-25T01:23:57;0.80;99.90
38090;DHT22;23904;52.322;10.232;2023-11-25T01:26:23;0.80;99.90
38090;DHT22;23904;52.322;10.232;2023-11-25T01:28:48;0.80;99.90
38090;DHT22;23904;52.322;10.232;2023-11-25T01:31:14;0.80;99.90
38090;DHT22;23904;52.322;10.232;2023-11-25T01:33:40;0.80;99.90
38090;DHT22;23904;52.322;10.232;2023-11-25T01:36:07;0.80;99.90
38090;DHT22;23904;52.322;10.232;2023-11-25T01:38:38;0.80;99.90
38090;DHT22;23904;52.322;10.232;2023-11-25T01:41:05;0.80;99.90
38090;DHT22;23904;52.322;10.232;2023-11-25T01:43:31;0.80;99.90
38090;DHT22;23904;52.322;10.232;2023-11-25T01:46:01;0.80;99.90
38090;DHT22;23904;52.322;10.232;2023-11-25T01:48:29;0.80;99.90
38090;DHT22;23904;52.322;10.232;2023-11-25T01:50:56;0.80;99.90
38090;DHT22;23904;52.322;10.232;2023-11-25T01:53:23;0.80;99.90
38090;DHT22;23904;52.322;10.232;2023-11-25T01:55:51;0.80;99.90
38090;DHT22;23904;52.322;10.232;2023-11-25T01:58:18;0.80;99.90
38090;DHT22;23904;52.322;10.232;2023-11-25T02:00:49;0.80;99.90
38090;DHT22;23904;52.322;10.232;2023-11-25T02:03:15;0.80;99.90
38090;DHT22;23904;52.322;10.232;2023-11-25T02:05:45;0.80;99.90
38090;DHT22;23904;52.322;10.232;2023-11-25T02:08:11;0.80;99.90
38090;DHT22;23904;52.322;10.232;2023-11-25T02:10:37;0.80;99.90
38090;DHT22;23904;52.322;10.232;2023-11-25T02:13:05;0.80;99.90
38090;DHT22;23904;52.322;10.232;2023-11-25T02:15:35;0.80;99.90
38090;DHT22;23904;52.322;10.232;2023-11-25T02:18:02;0.80;99.90
38090;DHT22;23904;52.322;10.232;2023-11-25T02:20:38;0.80;99.90
38090;DHT22;23904;52.322;10.232;2023-11-25T02:23:16;0.80;99.90
38090;DHT22;23904;52.322;10.232;2023-11-25T02:25:46;0.80;99.90
38090;DHT22;23904;52.322;10.232;2023-11-25T02:28:13;0.80;99.90
38090;DHT22;23904;52.322;10.232;2023-11-25T02:30:39;0.90;99.90
38090;DHT22;23904;52.322;10.232;2023-11-25T02:33:05;0.90;99.90
38090;DHT22;23904;52.322;10.232;2023-11-25T02:35:32;0.90;99.90
38090;DHT22;23904;52.322;10.232;2023-11-25T02:37:58;0.90;99.90
38090;DHT22;23904;52.322;10.232;2023-11-25T02:40:24;0.90;99.90
38090;DHT22;23904;52.322;10.232;2023-11-25T02:42:49;0.90;99.90
38090;DHT22;23904;52.322;10.232;2023-11-25T02:45:19;1.00;99.90
38090;DHT22;23904;52.322;10.232;2023-11-25T02:47:46;1.00;99.90
38090;DHT22;23904;52.322;10.232;2023-11-25T02:50:13;1.00;99.90
38090;DHT22;23904;52.322;10.232;2023-11-25T02:52:40;1.00;99.90
38090;DHT22;23904;52.322;10.232;2023-11-25T02:55:06;1.00;99.90
38090;DHT22;23904;52.322;10.232;2023-11-25T02:57:38;1.00;99.90
38090;DHT22;23904;52.322;10.232;2023-11-25T03:00:15;1.00;99.90
38090;DHT22;23904;52.322;10.232;2023-11-25T03:02:50;1.00;99.90
38090;DHT22;23904;52.322;10.232;2023-11-25T03:05:19;1.00;99.90
38090;DHT22;23904;52.322;10.232;2023-11-25T03:07:47;1.00;99.90
38090;DHT22;23904;52.322;10.232;2023-11-25T03:10:15;1.00;99.90
38090;DHT22;23904;52.322;10.232;2023-11-25T03:12:42;1.00;99.90
38090;DHT22;23904;52.322;10.232;2023-11-25T03:15:10;1.00;99.90
38090;DHT22;23904;52.322;10.232;2023-11-25T03:17:37;1.00;99.90
38090;DHT22;23904;52.322;10.232;2023-11-25T03:20:04;1.10;99.90
38090;DHT22;23904;52.322;10.232;2023-11-25T03:22:32;1.10;99.90
38090;DHT22;23904;52.322;10.232;2023-11-25T03:24:58;1.20;99.90
38090;DHT22;23904;52.322;10.232;2023-11-25T03:27:24;1.20;99.90
38090;DHT22;23904;52.322;10.232;2023-11-25T03:29:49;1.30;99.90
38090;DHT22;23904;52.322;10.232;2023-11-25T03:32:15;1.30;99.90
38090;DHT22;23904;52.322;10.232;2023-11-25T03:34:41;1.30;99.90
38090;DHT22;23904;52.322;10.232;2023-11-25T03:37:07;1.40;99.90
38090;DHT22;23904;52.322;10.232;2023-11-25T03:39:34;1.40;99.90
38090;DHT22;23904;52.322;10.232;2023-11-25T03:42:01;1.50;99.90
38090;DHT22;23904;52.322;10.232;2023-11-25T03:44:27;1.50;99.90
38090;DHT22;23904;52.322;10.232;2023-11-25T03:46:52;1.50;99.90
38090;DHT22;23904;52.322;10.232;2023-11-25T03:49:18;1.60;99.90
38090;DHT22;23904;52.322;10.232;2023-11-25T03:51:45;1.60;99.90
38090;DHT22;23904;52.322;10.232;2023-11-25T03:54:11;1.60;99.90
38090;DHT22;23904;52.322;10.232;2023-11-25T03:56:37;1.60;99.90
38090;DHT22;23904;52.322;10.232;2023-11-25T03:59:02;1.60;99.90
38090;DHT22;23904;52.322;10.232;2023-11-25T04:01:30;1.70;99.90
38090;DHT22;23904;52.322;10.232;2023-11-25T04:03:56;1.60;99.90
38090;DHT22;23904;52.322;10.232;2023-11-25T04:06:22;1.60;99.90
38090;DHT22;23904;52.322;10.232;2023-11-25T04:08:47;1.60;99.90
38090;DHT22;23904;52.322;10.232;2023-11-25T04:11:14;1.70;99.90
38090;DHT22;23904;52.322;10.232;2023-11-25T04:13:39;1.70;99.90
38090;DHT22;23904;52.322;10.232;2023-11-25T04:16:05;1.70;99.90
38090;DHT22;23904;52.322;10.232;2023-11-25T04:18:31;1.80;99.90
38090;DHT22;23904;52.322;10.232;2023-11-25T04:20:57;1.80;99.90
38090;DHT22;23904;52.322;10.232;2023-11-25T04:23:22;1.80;99.90
38090;DHT22;23904;52.322;10.232;2023-11-25T04:25:50;1.80;99.90
38090;DHT22;23904;52.322;10.232;2023-11-25T04:28:15;1.80;99.90
38090;DHT22;23904;52.322;10.232;2023-11-25T04:30:41;1.80;99.90
38090;DHT22;23904;52.322;10.232;2023-11-25T04:33:11;1.90;99.90
38090;DHT22;23904;52.322;10.232;2023-11-25T04:35:37;1.90;99.90
38090;DHT22;23904;52.322;10.232;2023-11-25T04:38:04;1.90;99.90
38090;DHT22;23904;52.322;10.232;2023-11-25T04:40:30;1.80;99.90
38090;DHT22;23904;52.322;10.232;2023-11-25T04:42:56;1.80;99.90
38090;DHT22;23904;52.322;10.232;2023-11-25T04:45:21;1.70;99.90
38090;DHT22;23904;52.322;10.232;2023-11-25T04:47:49;1.80;99.90
38090;DHT22;23904;52.322;10.232;2023-11-25T04:50:19;1.80;99.90
38090;DHT22;23904;52.322;10.232;2023-11-25T04:52:46;1.80;99.90
38090;DHT22;23904;52.322;10.232;2023-11-25T04:55:12;1.70;99.90
38090;DHT22;23904;52.322;10.232;2023-11-25T04:57:39;1.80;99.90
38090;DHT22;23904;52.322;10.232;2023-11-25T05:00:06;1.80;99.90
38090;DHT22;23904;52.322;10.232;2023-11-25T05:02:35;1.80;99.90
38090;DHT22;23904;52.322;10.232;2023-11-25T05:05:05;1.80;99.90
38090;DHT22;23904;52.322;10.232;2023-11-25T05:07:31;1.80;99.90
38090;DHT22;23904;52.322;10.232;2023-11-25T05:09:58;1.80;99.90
38090;DHT22;23904;52.322;10.232;2023-11-25T05:12:23;1.70;99.90
38090;DHT22;23904;52.322;10.232;2023-11-25T05:14:50;1.70;99.90
38090;DHT22;23904;52.322;10.232;2023-11-25T05:17:21;1.80;99.90
38090;DHT22;23904;52.322;10.232;2023-11-25T05:19:47;1.80;99.90
38090;DHT22;23904;52.322;10.232;2023-11-25T05:22:13;1.70;99.90
38090;DHT22;23904;52.322;10.232;2023-11-25T05:24:39;1.80;99.90
38090;DHT22;23904;52.322;10.232;2023-11-25T05:27:04;1.70;99.90
38090;DHT22;23904;52.322;10.232;2023-11-25T05:29:30;1.70;99.90
38090;DHT22;23904;52.322;10.232;2023-11-25T05:31:56;1.70;99.90
38090;DHT22;23904;52.322;10.232;2023-11-25T05:34:23;1.70;99.90
38090;DHT22;23904;52.322;10.232;2023-11-25T05:36:49;1.70;99.90
38090;DHT22;23904;52.322;10.232;2023-11-25T05:39:15;1.70;99.90
38090;DHT22;23904;52.322;10.232;2023-11-25T05:41:46;1.70;99.90
38090;DHT22;23904;52.322;10.232;2023-11-25T05:44:12;1.80;99.90
38090;DHT22;23904;52.322;10.232;2023-11-25T05:46:38;1.80;99.90
38090;DHT22;23904;52.322;10.232;2023-11-25T05:49:04;1.70;99.90
38090;DHT22;23904;52.322;10.232;2023-11-25T05:51:34;1.80;99.90
38090;DHT22;23904;52.322;10.232;2023-11-25T05:54:02;1.80;99.90
38090;DHT22;23904;52.322;10.232;2023-11-25T05:56:28;1.80;99.90
38090;DHT22;23904;52.322;10.232;2023-11-25T05:58:55;1.80;99.90
38090;DHT22;23904;52.322;10.232;2023-11-25T06:01:21;1.80;99.90
38090;DHT22;23904;52.322;10.232;2023-11-25T06:03:47;1.80;99.90
38090;DHT22;23904;52.322;10.232;2023-11-25T06:06:16;1.90;99.90
38090;DHT22;23904;52.322;10.232;2023-11-25T06:08:44;1.90;99.90
38090;DHT22;23904;52.322;10.232;2023-11-25T06:11:21;1.90;99.90
38090;DHT22;23904;52.322;10.232;2023-11-25T06:13:58;2.00;99.90
38090;DHT22;23904;52.322;10.232;2023-11-25T06:16:24;2.00;99.90
38090;DHT22;23904;52.322;10.232;2023-11-25T06:18:50;2.00;99.90
38090;DHT22;23904;52.322;10.232;2023-11-25T06:21:16;2.00;99.90
38090;DHT22;23904;52.322;10.232;2023-11-25T06:23:42;2.00;99.90
38090;DHT22;23904;52.322;10.232;2023-11-25T06:26:11;2.10;99.90
38090;DHT22;23904;52.322;10.232;2023-11-25T06:28:41;2.10;99.90
38090;DHT22;23904;52.322;10.232;2023-11-25T06:31:16;2.20;99.90
38090;DHT22;23904;52.322;10.232;2023-11-25T06:33:42;2.20;99.90
38090;DHT22;23904;52.322;10.232;2023-11-25T06:36:08;2.20;99.90
38090;DHT22;23904;52.322;10.232;2023-11-25T06:38:35;2.30;99.90
38090;DHT22;23904;52.322;10.232;2023-11-25T06:41:01;2.30;99.90
38090;DHT22;23904;52.322;10.232;2023-11-25T06:43:27;2.30;99.90
38090;DHT22;23904;52.322;10.232;2023-11-25T06:45:53;2.40;99.90
38090;DHT22;23904;52.322;10.232;2023-11-25T06:48:19;2.40;99.90
38090;DHT22;23904;52.322;10.232;2023-11-25T06:50:46;2.50;99.90
38090;DHT22;23904;52.322;10.232;2023-11-25T06:53:12;2.50;99.90
38090;DHT22;23904;52.322;10.232;2023-11-25T06:55:38;2.60;99.90
38090;DHT22;23904;52.322;10.232;2023-11-25T06:58:07;2.60;99.90
38090;DHT22;23904;52.322;10.232;2023-11-25T07:00:36;2.70;99.90
38090;DHT22;23904;52.322;10.232;2023-11-25T07:03:05;2.70;99.90
38090;DHT22;23904;52.322;10.232;2023-11-25T07:05:31;2.80;99.90
38090;DHT22;23904;52.322;10.232;2023-11-25T07:07:57;2.80;99.90
38090;DHT22;23904;52.322;10.232;2023-11-25T07:10:25;2.80;99.90
38090;DHT22;23904;52.322;10.232;2023-11-25T07:12:58;2.80;99.90
38090;DHT22;23904;52.322;10.232;2023-11-25T07:15:24;2.80;99.90
38090;DHT22;23904;52.322;10.232;2023-11-25T07:17:50;2.90;99.90
38090;DHT22;23904;52.322;10.232;2023-11-25T07:20:16;2.90;99.90
38090;DHT22;23904;52.322;10.232;2023-11-25T07:22:44;2.90;99.90
38090;DHT22;23904;52.322;10.232;2023-11-25T07:25:13;3.00;99.90
38090;DHT22;23904;52.322;10.232;2023-11-25T07:27:40;2.90;99.90
38090;DHT22;23904;52.322;10.232;2023-11-25T07:30:07;2.90;99.90
38090;DHT22;23904;52.322;10.232;2023-11-25T07:32:34;2.90;99.90
38090;DHT22;23904;52.322;10.232;2023-11-25T07:35:00;2.90;99.90
38090;DHT22;23904;52.322;10.232;2023-11-25T07:37:31;2.90;99.90
38090;DHT22;23904;52.322;10.232;2023-11-25T07:39:57;2.80;99.90
38090;DHT22;23904;52.322;10.232;2023-11-25T07:42:23;2.80;99.90
38090;DHT22;23904;52.322;10.232;2023-11-25T07:44:48;2.80;99.90
38090;DHT22;23904;52.322;10.232;2023-11-25T07:47:14;2.70;99.90
38090;DHT22;23904;52.322;10.232;2023-11-25T07:49:42;2.70;99.90
38090;DHT22;23904;52.322;10.232;2023-11-25T07:52:07;2.60;99.90
38090;DHT22;23904;52.322;10.232;2023-11-25T07:54:33;2.60;99.90
38090;DHT22;23904;52.322;10.232;2023-11-25T07:56:59;2.60;99.90
38090;DHT22;23904;52.322;10.232;2023-11-25T07:59:25;2.60;99.90
38090;DHT22;23904;52.322;10.232;2023-11-25T08:01:51;2.60;99.90
38090;DHT22;23904;52.322;10.232;2023-11-25T08:04:19;2.60;99.90
38090;DHT22;23904;52.322;10.232;2023-11-25T08:06:45;2.60;99.90
38090;DHT22;23904;52.322;10.232;2023-11-25T08:09:11;2.60;99.90
38090;DHT22;23904;52.322;10.232;2023-11-25T08:11:37;2.60;99.90
38090;DHT22;23904;52.322;10.232;2023-11-25T08:14:03;2.60;99.90
38090;DHT22;23904;52.322;10.232;2023-11-25T08:16:29;2.60;99.90
38090;DHT22;23904;52.322;10.232;2023-11-25T08:18:54;2.60;99.90
38090;DHT22;23904;52.322;10.232;2023-11-25T08:21:21;2.60;99.90
38090;DHT22;23904;52.322;10.232;2023-11-25T08:23:48;2.60;99.90
38090;DHT22;23904;52.322;10.232;2023-11-25T08:26:23;2.60;99.90
38090;DHT22;23904;52.322;10.232;2023-11-25T08:28:51;2.60;99.90
38090;DHT22;23904;52.322;10.232;2023-11-25T08:31:18;2.60;99.90
38090;DHT22;23904;52.322;10.232;2023-11-25T08:33:46;2.70;99.90
38090;DHT22;23904;52.322;10.232;2023-11-25T08:36:14;2.70;99.90
38090;DHT22;23904;52.322;10.232;2023-11-25T08:38:40;2.70;99.90
38090;DHT22;23904;52.322;10.232;2023-11-25T08:41:07;2.80;99.90
38090;DHT22;23904;52.322;10.232;2023-11-25T08:43:40;2.80;99.90
38090;DHT22;23904;52.322;10.232;2023-11-25T08:46:12;2.90;99.90
38090;DHT22;23904;52.322;10.232;2023-11-25T08:48:39;2.90;99.90
38090;DHT22;23904;52.322;10.232;2023-11-25T08:51:07;2.90;99.90
38090;DHT22;23904;52.322;10.232;2023-11-25T08:53:37;3.00;99.90
38090;DHT22;23904;52.322;10.232;2023-11-25T08:56:03;3.00;99.90
38090;DHT22;23904;52.322;10.232;2023-11-25T08:58:30;3.00;99.90
38090;DHT22;23904;52.322;10.232;2023-11-25T09:00:55;3.00;99.90
38090;DHT22;23904;52.322;10.232;2023-11-25T09:03:22;3.00;99.90
38090;DHT22;23904;52.322;10.232;2023-11-25T09:05:50;3.00;99.90
38090;DHT22;23904;52.322;10.232;2023-11-25T09:08:16;3.00;99.90
38090;DHT22;23904;52.322;10.232;2023-11-25T09:10:42;3.10;99.90
38090;DHT22;23904;52.322;10.232;2023-11-25T09:13:08;3.10;99.90
38090;DHT22;23904;52.322;10.232;2023-11-25T09:15:34;3.10;99.90
38090;DHT22;23904;52.322;10.232;2023-11-25T09:18:00;3.20;99.90
38090;DHT22;23904;52.322;10.232;2023-11-25T09:20:26;3.20;99.90
38090;DHT22;23904;52.322;10.232;2023-11-25T09:22:52;3.30;99.90
38090;DHT22;23904;52.322;10.232;2023-11-25T09:25:18;3.20;99.90
38090;DHT22;23904;52.322;10.232;2023-11-25T09:27:44;3.30;99.90
38090;DHT22;23904;52.322;10.232;2023-11-25T09:30:11;3.30;99.90
38090;DHT22;23904;52.322;10.232;2023-11-25T09:32:38;3.30;99.90
38090;DHT22;23904;52.322;10.232;2023-11-25T09:35:04;3.30;99.90
38090;DHT22;23904;52.322;10.232;2023-11-25T09:37:32;3.30;99.90
38090;DHT22;23904;52.322;10.232;2023-11-25T09:39:58;3.40;99.90
38090;DHT22;23904;52.322;10.232;2023-11-25T09:42:24;3.40;99.90
38090;DHT22;23904;52.322;10.232;2023-11-25T09:44:50;3.50;99.90
38090;DHT22;23904;52.322;10.232;2023-11-25T09:47:16;3.50;99.90
38090;DHT22;23904;52.322;10.232;2023-11-25T09:49:42;3.50;99.90
38090;DHT22;23904;52.322;10.232;2023-11-25T09:52:09;3.50;99.90
38090;DHT22;23904;52.322;10.232;2023-11-25T09:54:35;3.60;99.90
38090;DHT22;23904;52.322;10.232;2023-11-25T09:57:03;3.50;99.90
38090;DHT22;23904;52.322;10.232;2023-11-25T09:59:30;3.60;99.90
38090;DHT22;23904;52.322;10.232;2023-11-25T10:01:56;3.60;99.90
38090;DHT22;23904;52.322;10.232;2023-11-25T10:04:25;3.70;99.90
38090;DHT22;23904;52.322;10.232;2023-11-25T10:06:54;3.70;99.90
38090;DHT22;23904;52.322;10.232;2023-11-25T10:09:20;3.80;99.90
38090;DHT22;23904;52.322;10.232;2023-11-25T10:11:47;3.90;99.90
38090;DHT22;23904;52.322;10.232;2023-11-25T10:14:13;4.00;99.90
38090;DHT22;23904;52.322;10.232;2023-11-25T10:16:40;4.00;99.90
38090;DHT22;23904;52.322;10.232;2023-11-25T10:19:23;4.00;99.90
38090;DHT22;23904;52.322;10.232;2023-11-25T10:21:50;4.00;99.90
38090;DHT22;23904;52.322;10.232;2023-11-25T10:24:17;4.00;99.90
38090;DHT22;23904;52.322;10.232;2023-11-25T10:26:45;4.00;99.90
38090;DHT22;23904;52.322;10.232;2023-11-25T10:29:14;4.00;99.90
38090;DHT22;23904;52.322;10.232;2023-11-25T10:31:43;4.00;99.90
38090;DHT22;23904;52.322;10.232;2023-11-25T10:34:10;3.90;99.90
38090;DHT22;23904;52.322;10.232;2023-11-25T10:36:36;4.00;99.90
38090;DHT22;23904;52.322;10.232;2023-11-25T10:39:05;3.90;99.90
38090;DHT22;23904;52.322;10.232;2023-11-25T10:41:34;3.90;99.90
38090;DHT22;23904;52.322;10.232;2023-11-25T10:44:04;4.00;99.90
38090;DHT22;23904;52.322;10.232;2023-11-25T10:46:38;4.00;99.90
38090;DHT22;23904;52.322;10.232;2023-11-25T10:49:07;3.90;99.90
38090;DHT22;23904;52.322;10.232;2023-11-25T10:51:34;3.90;99.90
38090;DHT22;23904;52.322;10.232;2023-11-25T10:54:02;3.90;99.90
38090;DHT22;23904;52.322;10.232;2023-11-25T10:56:28;3.90;99.90
38090;DHT22;23904;52.322;10.232;2023-11-25T10:58:57;3.90;99.90
38090;DHT22;23904;52.322;10.232;2023-11-25T11:01:25;4.00;99.90
38090;DHT22;23904;52.322;10.232;2023-11-25T11:06:47;3.90;99.90
38090;DHT22;23904;52.322;10.232;2023-11-25T11:09:18;4.00;99.90
38090;DHT22;23904;52.322;10.232;2023-11-25T11:11:50;4.10;99.90
38090;DHT22;23904;52.322;10.232;2023-11-25T11:14:20;4.00;99.90
38090;DHT22;23904;52.322;10.232;2023-11-25T11:17:03;4.00;99.90
38090;DHT22;23904;52.322;10.232;2023-11-25T11:19:40;4.10;99.90
38090;DHT22;23904;52.322;10.232;2023-11-25T11:22:10;4.10;99.90
38090;DHT22;23904;52.322;10.232;2023-11-25T11:24:51;4.10;99.90
38090;DHT22;23904;52.322;10.232;2023-11-25T11:27:35;4.20;99.90
38090;DHT22;23904;52.322;10.232;2023-11-25T11:33:06;4.10;99.90
38090;DHT22;23904;52.322;10.232;2023-11-25T11:35:35;4.10;99.90
38090;DHT22;23904;52.322;10.232;2023-11-25T11:38:22;4.20;99.90
38090;DHT22;23904;52.322;10.232;2023-11-25T11:40:53;4.20;99.90
38090;DHT22;23904;52.322;10.232;2023-11-25T11:43:19;4.20;99.90
38090;DHT22;23904;52.322;10.232;2023-11-25T11:45:45;4.20;99.90
38090;DHT22;23904;52.322;10.232;2023-11-25T11:48:14;4.30;99.90
38090;DHT22;23904;52.322;10.232;2023-11-25T11:50:42;4.30;99.90
38090;DHT22;23904;52.322;10.232;2023-11-25T11:55:55;4.40;99.90
38090;DHT22;23904;52.322;10.232;2023-11-25T11:58:22;4.40;99.90
38090;DHT22;23904;52.322;10.232;2023-11-25T12:00:54;4.40;99.90
38090;DHT22;23904;52.322;10.232;2023-11-25T12:03:34;4.40;99.90
38090;DHT22;23904;52.322;10.232;2023-11-25T12:06:04;4.50;99.90
38090;DHT22;23904;52.322;10.232;2023-11-25T12:08:34;4.50;99.90
38090;DHT22;23904;52.322;10.232;2023-11-25T12:11:00;4.60;99.90
38090;DHT22;23904;52.322;10.232;2023-11-25T12:13:32;4.60;99.90
38090;DHT22;23904;52.322;10.232;2023-11-25T12:16:02;4.60;99.90
38090;DHT22;23904;52.322;10.232;2023-11-25T12:18:30;4.60;99.90
38090;DHT22;23904;52.322;10.232;2023-11-25T12:20:58;4.70;99.90
38090;DHT22;23904;52.322;10.232;2023-11-25T12:23:28;4.70;99.90
38090;DHT22;23904;52.322;10.232;2023-11-25T12:25:56;4.70;99.90
38090;DHT22;23904;52.322;10.232;2023-11-25T12:28:22;4.70;99.90
38090;DHT22;23904;52.322;10.232;2023-11-25T12:30:49;4.70;99.90
38090;DHT22;23904;52.322;10.232;2023-11-25T12:33:17;4.60;99.90
38090;DHT22;23904;52.322;10.232;2023-11-25T12:35:43;4.70;99.90
38090;DHT22;23904;52.322;10.232;2023-11-25T12:38:09;4.70;99.90
38090;DHT22;23904;52.322;10.232;2023-11-25T12:40:36;4.70;99.90
38090;DHT22;23904;52.322;10.232;2023-11-25T12:43:05;4.80;99.90
38090;DHT22;23904;52.322;10.232;2023-11-25T12:48:03;4.80;99.90
38090;DHT22;23904;52.322;10.232;2023-11-25T12:50:32;4.80;99.90
38090;DHT22;23904;52.322;10.232;2023-11-25T12:53:06;4.80;99.90
38090;DHT22;23904;52.322;10.232;2023-11-25T12:55:40;4.80;99.90
38090;DHT22;23904;52.322;10.232;2023-11-25T12:58:12;4.80;99.90
38090;DHT22;23904;52.322;10.232;2023-11-25T13:00:46;4.80;99.90
38090;DHT22;23904;52.322;10.232;2023-11-25T13:03:27;4.80;99.90
38090;DHT22;23904;52.322;10.232;2023-11-25T13:06:00;4.70;99.90
38090;DHT22;23904;52.322;10.232;2023-11-25T13:08:29;4.70;99.90
38090;DHT22;23904;52.322;10.232;2023-11-25T13:10:59;4.80;99.90
38090;DHT22;23904;52.322;10.232;2023-11-25T13:13:27;4.90;99.90
38090;DHT22;23904;52.322;10.232;2023-11-25T13:15:56;4.90;99.90
38090;DHT22;23904;52.322;10.232;2023-11-25T13:18:23;4.90;99.90
38090;DHT22;23904;52.322;10.232;2023-11-25T13:20:50;4.90;99.90
38090;DHT22;23904;52.322;10.232;2023-11-25T13:23:16;4.90;99.90
38090;DHT22;23904;52.322;10.232;2023-11-25T13:25:51;5.00;99.90
38090;DHT22;23904;52.322;10.232;2023-11-25T13:28:17;5.00;99.90
38090;DHT22;23904;52.322;10.232;2023-11-25T13:30:44;5.00;99.90
38090;DHT22;23904;52.322;10.232;2023-11-25T13:33:12;5.10;99.90
38090;DHT22;23904;52.322;10.232;2023-11-25T13:35:41;5.10;99.90
38090;DHT22;23904;52.322;10.232;2023-11-25T13:38:08;5.10;99.90
38090;DHT22;23904;52.322;10.232;2023-11-25T13:40:35;5.20;99.90
38090;DHT22;23904;52.322;10.232;2023-11-25T13:43:04;5.30;99.90
38090;DHT22;23904;52.322;10.232;2023-11-25T13:45:31;5.30;99.90
38090;DHT22;23904;52.322;10.232;2023-11-25T13:47:58;5.40;99.90
38090;DHT22;23904;52.322;10.232;2023-11-25T13:50:26;5.40;99.90
38090;DHT22;23904;52.322;10.232;2023-11-25T13:52:53;5.30;99.90
38090;DHT22;23904;52.322;10.232;2023-11-25T13:55:19;5.20;99.90
38090;DHT22;23904;52.322;10.232;2023-11-25T13:57:46;5.10;99.90
38090;DHT22;23904;52.322;10.232;2023-11-25T14:00:13;5.10;99.90
38090;DHT22;23904;52.322;10.232;2023-11-25T14:02:41;5.00;99.90
38090;DHT22;23904;52.322;10.232;2023-11-25T14:05:07;5.00;99.90
38090;DHT22;23904;52.322;10.232;2023-11-25T14:07:35;5.00;99.90
38090;DHT22;23904;52.322;10.232;2023-11-25T14:10:03;5.00;99.90
38090;DHT22;23904;52.322;10.232;2023-11-25T14:12:30;5.00;99.90
38090;DHT22;23904;52.322;10.232;2023-11-25T14:14:56;4.90;99.90
38090;DHT22;23904;52.322;10.232;2023-11-25T14:17:24;4.90;99.90
38090;DHT22;23904;52.322;10.232;2023-11-25T14:19:51;4.80;99.90
38090;DHT22;23904;52.322;10.232;2023-11-25T14:22:18;4.80;99.90
38090;DHT22;23904;52.322;10.232;2023-11-25T14:24:44;4.80;99.90
38090;DHT22;23904;52.322;10.232;2023-11-25T14:27:11;4.80;99.90
38090;DHT22;23904;52.322;10.232;2023-11-25T14:29:36;4.80;99.90
38090;DHT22;23904;52.322;10.232;2023-11-25T14:32:02;4.70;99.90
38090;DHT22;23904;52.322;10.232;2023-11-25T14:34:28;4.70;99.90
38090;DHT22;23904;52.322;10.232;2023-11-25T14:36:55;4.60;99.90
38090;DHT22;23904;52.322;10.232;2023-11-25T14:39:22;4.60;99.90
38090;DHT22;23904;52.322;10.232;2023-11-25T14:42:01;4.60;99.90
38090;DHT22;23904;52.322;10.232;2023-11-25T14:44:28;4.60;99.90
38090;DHT22;23904;52.322;10.232;2023-11-25T14:46:55;4.60;99.90
38090;DHT22;23904;52.322;10.232;2023-11-25T14:49:22;4.60;99.90
38090;DHT22;23904;52.322;10.232;2023-11-25T14:51:49;4.50;99.90
38090;DHT22;23904;52.322;10.232;2023-11-25T14:54:17;4.50;99.90
38090;DHT22;23904;52.322;10.232;2023-11-25T14:56:43;4.40;99.90
38090;DHT22;23904;52.322;10.232;2023-11-25T14:59:14;4.40;99.90
38090;DHT22;23904;52.322;10.232;2023-11-25T15:01:41;4.40;99.90
38090;DHT22;23904;52.322;10.232;2023-11-25T15:04:07;4.30;99.90
38090;DHT22;23904;52.322;10.232;2023-11-25T15:06:36;4.30;99.90
38090;DHT22;23904;52.322;10.232;2023-11-25T15:09:03;4.20;99.90
38090;DHT22;23904;52.322;10.232;2023-11-25T15:11:29;4.20;99.90
38090;DHT22;23904;52.322;10.232;2023-11-25T15:13:54;4.10;99.90
38090;DHT22;23904;52.322;10.232;2023-11-25T15:16:20;4.00;99.90
38090;DHT22;23904;52.322;10.232;2023-11-25T15:18:46;4.00;99.90
38090;DHT22;23904;52.322;10.232;2023-11-25T15:21:18;4.00;99.90
38090;DHT22;23904;52.322;10.232;2023-11-25T15:23:45;3.90;99.90
38090;DHT22;23904;52.322;10.232;2023-11-25T15:26:11;3.90;99.90
38090;DHT22;23904;52.322;10.232;2023-11-25T15:28:38;3.80;99.90
38090;DHT22;23904;52.322;10.232;2023-11-25T15:31:09;3.70;99.90
38090;DHT22;23904;52.322;10.232;2023-11-25T15:33:38;3.70;99.90
38090;DHT22;23904;52.322;10.232;2023-11-25T15:36:11;3.70;99.90
38090;DHT22;23904;52.322;10.232;2023-11-25T15:38:38;3.70;99.90
38090;DHT22;23904;52.322;10.232;2023-11-25T15:41:08;3.60;99.90
38090;DHT22;23904;52.322;10.232;2023-11-25T15:43:36;3.60;99.90